KVPS/VPS METAR and TAF weather

Enter ICAO airport designator
Station Type Date Time Source
KVPS METAR 2021/10/24 22:56 UTC NOAA

KVPS 242256Z AUTO 12006KT 10SM SCT019 BKN030 OVC095 21/19 A2997 RMK AO2 RAE29RAB29E29 SLP155 P0005 T02130185 $


Station Type Date Time Source
KVPS Decoded METAR 2021/10/24 22:56 UTC NOAA

Valparaiso / Eglin Air Force Base, FL, United States (KVPS) 30-29N 086-31W 29M
Oct 24, 2021 - 06:56 PM EDT / 2021.10.24 2256 UTC
Wind: from the ESE (120 degrees) at 7 MPH (6 KT):0
Visibility: 10 mile(s):0
Sky conditions: overcast
Precipitation last hour: 0.05 inches
Temperature: 70.3 F (21.3 C)
Dew Point: 65.3 F (18.5 C)
Relative Humidity: 84%
Pressure (altimeter): 29.97 in. Hg (1014 hPa)
ob: KVPS 242256Z AUTO 12006KT 10SM SCT019 BKN030 OVC095 21/19 A2997 RMK AO2 RAE29RAB29E29 SLP155 P0005 T02130185
cycle: 23

Station Type Date Time Source
KVPS TAF 2021/10/24 17:08 UTC NOAA

TAF KVPS 241700Z 2417/2523 08009KT 9999 SCT020 BKN190 QNH2997INS
BECMG 2420/2421 11009KT 9000 -SHRA FEW018 SCT025 BKN045 QNH2997INS
BECMG 2505/2506 16008KT 8000 -SHRA VCTS BKN017 BKN025CB QNH2994INS
BECMG 2512/2513 14006KT 9999 NSW BKN020 QNH2990INS
BECMG 2518/2519 22009KT 9999 FEW025 QNH2987INS TX28/2420Z TN16/2511Z

Example: see airport list